sensor_id;sensor_type;location;lat;lon;timestamp;pressure;altitude;pressure_sealevel;temperature;humidity
77235;BME280;66253;50.526;14.974;2023-07-29T00:00:56;98526.80;;;18.41;73.55
77235;BME280;66253;50.526;14.974;2023-07-29T00:03:25;98523.10;;;18.38;73.62
77235;BME280;66253;50.526;14.974;2023-07-29T00:05:53;98522.98;;;18.40;73.57
77235;BME280;66253;50.526;14.974;2023-07-29T00:08:21;98526.13;;;18.41;73.85
77235;BME280;66253;50.526;14.974;2023-07-29T00:10:50;98525.23;;;18.41;73.77
77235;BME280;66253;50.526;14.974;2023-07-29T00:13:18;98525.37;;;18.42;73.86
77235;BME280;66253;50.526;14.974;2023-07-29T00:15:46;98523.52;;;18.42;73.87
77235;BME280;66253;50.526;14.974;2023-07-29T00:18:15;98528.48;;;18.42;74.03
77235;BME280;66253;50.526;14.974;2023-07-29T00:20:43;98527.67;;;18.41;73.93
77235;BME280;66253;50.526;14.974;2023-07-29T00:23:11;98530.35;;;18.37;73.91
77235;BME280;66253;50.526;14.974;2023-07-29T00:25:39;98528.91;;;18.34;74.02
77235;BME280;66253;50.526;14.974;2023-07-29T00:28:08;98525.35;;;18.35;74.14
77235;BME280;66253;50.526;14.974;2023-07-29T00:30:36;98522.73;;;18.34;74.16
77235;BME280;66253;50.526;14.974;2023-07-29T00:33:04;98528.63;;;18.32;74.40
77235;BME280;66253;50.526;14.974;2023-07-29T00:35:33;98529.63;;;18.27;74.50
77235;BME280;66253;50.526;14.974;2023-07-29T00:38:01;98531.52;;;18.27;74.60
77235;BME280;66253;50.526;14.974;2023-07-29T00:40:30;98528.02;;;18.27;74.70
77235;BME280;66253;50.526;14.974;2023-07-29T00:42:59;98526.99;;;18.25;74.61
77235;BME280;66253;50.526;14.974;2023-07-29T00:45:28;98522.86;;;18.23;74.75
77235;BME280;66253;50.526;14.974;2023-07-29T00:47:57;98526.15;;;18.25;74.70
77235;BME280;66253;50.526;14.974;2023-07-29T00:50:26;98523.64;;;18.24;74.77
77235;BME280;66253;50.526;14.974;2023-07-29T00:52:55;98518.74;;;18.23;74.78
77235;BME280;66253;50.526;14.974;2023-07-29T00:58:47;98511.04;;;18.15;74.54
77235;BME280;66253;50.526;14.974;2023-07-29T01:01:15;98510.64;;;18.13;74.68
77235;BME280;66253;50.526;14.974;2023-07-29T01:03:44;98509.41;;;18.15;74.87
77235;BME280;66253;50.526;14.974;2023-07-29T01:06:18;98505.60;;;18.16;74.74
77235;BME280;66253;50.526;14.974;2023-07-29T01:08:59;98508.36;;;18.16;74.69
77235;BME280;66253;50.526;14.974;2023-07-29T01:11:35;98514.84;;;18.15;74.74
77235;BME280;66253;50.526;14.974;2023-07-29T01:14:14;98513.06;;;18.14;74.63
77235;BME280;66253;50.526;14.974;2023-07-29T01:16:53;98511.01;;;18.10;74.65
77235;BME280;66253;50.526;14.974;2023-07-29T01:19:38;98513.22;;;18.07;74.65
77235;BME280;66253;50.526;14.974;2023-07-29T01:22:11;98506.91;;;17.99;74.51
77235;BME280;66253;50.526;14.974;2023-07-29T01:24:41;98508.67;;;17.94;74.80
77235;BME280;66253;50.526;14.974;2023-07-29T01:27:09;98505.23;;;17.89;74.67
77235;BME280;66253;50.526;14.974;2023-07-29T01:29:38;98505.90;;;17.87;74.86
77235;BME280;66253;50.526;14.974;2023-07-29T01:32:11;98505.52;;;17.87;74.76
77235;BME280;66253;50.526;14.974;2023-07-29T01:34:45;98506.70;;;17.89;74.89
77235;BME280;66253;50.526;14.974;2023-07-29T01:37:24;98510.08;;;17.92;74.77
77235;BME280;66253;50.526;14.974;2023-07-29T01:39:54;98511.21;;;17.94;74.93
77235;BME280;66253;50.526;14.974;2023-07-29T01:42:24;98517.21;;;17.96;74.80
77235;BME280;66253;50.526;14.974;2023-07-29T01:44:53;98522.88;;;17.99;74.87
77235;BME280;66253;50.526;14.974;2023-07-29T01:47:22;98520.77;;;17.99;74.91
77235;BME280;66253;50.526;14.974;2023-07-29T01:49:50;98522.45;;;17.99;74.97
77235;BME280;66253;50.526;14.974;2023-07-29T01:52:19;98519.23;;;18.01;74.94
77235;BME280;66253;50.526;14.974;2023-07-29T01:54:47;98520.52;;;18.02;75.17
77235;BME280;66253;50.526;14.974;2023-07-29T01:57:15;98518.50;;;18.03;75.07
77235;BME280;66253;50.526;14.974;2023-07-29T01:59:43;98516.30;;;18.04;75.11
77235;BME280;66253;50.526;14.974;2023-07-29T02:02:12;98511.46;;;18.02;75.20
77235;BME280;66253;50.526;14.974;2023-07-29T02:04:40;98507.89;;;18.02;75.17
77235;BME280;66253;50.526;14.974;2023-07-29T02:07:08;98513.14;;;18.01;75.10
77235;BME280;66253;50.526;14.974;2023-07-29T02:09:37;98515.52;;;18.00;75.14
77235;BME280;66253;50.526;14.974;2023-07-29T02:12:06;98512.05;;;17.99;75.07
77235;BME280;66253;50.526;14.974;2023-07-29T02:14:34;98517.55;;;17.98;75.24
77235;BME280;66253;50.526;14.974;2023-07-29T02:17:03;98513.73;;;18.00;75.33
77235;BME280;66253;50.526;14.974;2023-07-29T02:19:31;98511.83;;;18.02;75.20
77235;BME280;66253;50.526;14.974;2023-07-29T02:22:00;98508.78;;;18.01;75.06
77235;BME280;66253;50.526;14.974;2023-07-29T02:24:28;98514.52;;;18.04;75.14
77235;BME280;66253;50.526;14.974;2023-07-29T02:26:56;98513.58;;;18.07;75.02
77235;BME280;66253;50.526;14.974;2023-07-29T02:29:25;98517.70;;;18.09;75.07
77235;BME280;66253;50.526;14.974;2023-07-29T02:31:53;98515.91;;;18.12;75.04
77235;BME280;66253;50.526;14.974;2023-07-29T02:34:21;98518.67;;;18.13;74.84
77235;BME280;66253;50.526;14.974;2023-07-29T02:36:49;98517.30;;;18.15;74.79
77235;BME280;66253;50.526;14.974;2023-07-29T02:39:18;98514.16;;;18.17;74.94
77235;BME280;66253;50.526;14.974;2023-07-29T02:41:46;98509.46;;;18.17;74.98
77235;BME280;66253;50.526;14.974;2023-07-29T02:44:14;98514.52;;;18.17;74.93
77235;BME280;66253;50.526;14.974;2023-07-29T02:46:43;98513.00;;;18.15;75.05
77235;BME280;66253;50.526;14.974;2023-07-29T02:49:11;98512.45;;;18.14;75.00
77235;BME280;66253;50.526;14.974;2023-07-29T02:51:39;98518.64;;;18.10;75.08
77235;BME280;66253;50.526;14.974;2023-07-29T02:54:08;98515.58;;;18.06;75.19
77235;BME280;66253;50.526;14.974;2023-07-29T02:56:36;98509.09;;;18.02;75.04
77235;BME280;66253;50.526;14.974;2023-07-29T02:59:04;98510.95;;;18.00;75.00
77235;BME280;66253;50.526;14.974;2023-07-29T03:01:33;98511.35;;;18.00;75.08
77235;BME280;66253;50.526;14.974;2023-07-29T03:04:01;98514.08;;;17.97;75.02
77235;BME280;66253;50.526;14.974;2023-07-29T03:06:29;98519.29;;;17.95;75.06
77235;BME280;66253;50.526;14.974;2023-07-29T03:08:57;98519.23;;;17.93;75.15
77235;BME280;66253;50.526;14.974;2023-07-29T03:11:26;98527.49;;;17.94;75.13
77235;BME280;66253;50.526;14.974;2023-07-29T03:13:54;98525.67;;;17.93;75.16
77235;BME280;66253;50.526;14.974;2023-07-29T03:16:22;98527.22;;;17.91;74.97
77235;BME280;66253;50.526;14.974;2023-07-29T03:18:51;98525.52;;;17.91;75.07
77235;BME280;66253;50.526;14.974;2023-07-29T03:21:19;98526.90;;;17.88;75.02
77235;BME280;66253;50.526;14.974;2023-07-29T03:23:48;98525.46;;;17.83;75.05
77235;BME280;66253;50.526;14.974;2023-07-29T03:26:16;98531.59;;;17.80;75.03
77235;BME280;66253;50.526;14.974;2023-07-29T03:28:45;98531.77;;;17.78;75.00
77235;BME280;66253;50.526;14.974;2023-07-29T03:31:13;98532.01;;;17.77;74.95
77235;BME280;66253;50.526;14.974;2023-07-29T03:33:41;98531.61;;;17.76;75.11
77235;BME280;66253;50.526;14.974;2023-07-29T03:36:09;98529.73;;;17.76;75.04
77235;BME280;66253;50.526;14.974;2023-07-29T03:38:38;98525.58;;;17.74;74.96
77235;BME280;66253;50.526;14.974;2023-07-29T03:41:06;98519.38;;;17.72;74.83
77235;BME280;66253;50.526;14.974;2023-07-29T03:43:34;98517.29;;;17.70;74.75
77235;BME280;66253;50.526;14.974;2023-07-29T03:46:02;98519.42;;;17.70;74.83
77235;BME280;66253;50.526;14.974;2023-07-29T03:48:31;98517.22;;;17.68;74.82
77235;BME280;66253;50.526;14.974;2023-07-29T03:50:59;98515.01;;;17.66;74.62
77235;BME280;66253;50.526;14.974;2023-07-29T03:53:27;98519.98;;;17.66;74.66
77235;BME280;66253;50.526;14.974;2023-07-29T03:55:55;98521.23;;;17.64;74.67
77235;BME280;66253;50.526;14.974;2023-07-29T03:58:24;98527.86;;;17.61;74.82
77235;BME280;66253;50.526;14.974;2023-07-29T04:00:52;98527.74;;;17.60;74.65
77235;BME280;66253;50.526;14.974;2023-07-29T04:03:20;98524.38;;;17.59;74.61
77235;BME280;66253;50.526;14.974;2023-07-29T04:05:49;98528.30;;;17.60;74.79
77235;BME280;66253;50.526;14.974;2023-07-29T04:08:18;98530.63;;;17.61;74.87
77235;BME280;66253;50.526;14.974;2023-07-29T04:10:47;98532.41;;;17.63;74.81
77235;BME280;66253;50.526;14.974;2023-07-29T04:13:15;98536.88;;;17.63;74.88
77235;BME280;66253;50.526;14.974;2023-07-29T04:15:44;98535.89;;;17.58;74.93
77235;BME280;66253;50.526;14.974;2023-07-29T04:18:12;98540.70;;;17.53;74.99
77235;BME280;66253;50.526;14.974;2023-07-29T04:20:41;98538.42;;;17.52;75.03
77235;BME280;66253;50.526;14.974;2023-07-29T04:23:09;98540.60;;;17.51;75.24
77235;BME280;66253;50.526;14.974;2023-07-29T04:25:38;98549.63;;;17.50;75.24
77235;BME280;66253;50.526;14.974;2023-07-29T04:28:06;98547.75;;;17.46;74.90
77235;BME280;66253;50.526;14.974;2023-07-29T04:30:35;98549.08;;;17.43;74.95
77235;BME280;66253;50.526;14.974;2023-07-29T04:33:03;98545.11;;;17.45;74.91
77235;BME280;66253;50.526;14.974;2023-07-29T04:35:31;98542.78;;;17.48;74.94
77235;BME280;66253;50.526;14.974;2023-07-29T04:38:00;98544.10;;;17.50;75.05
77235;BME280;66253;50.526;14.974;2023-07-29T04:40:28;98544.38;;;17.58;75.15
77235;BME280;66253;50.526;14.974;2023-07-29T04:42:56;98544.36;;;17.67;75.11
77235;BME280;66253;50.526;14.974;2023-07-29T04:45:29;98546.77;;;17.79;75.03
77235;BME280;66253;50.526;14.974;2023-07-29T04:47:57;98545.56;;;17.89;74.95
77235;BME280;66253;50.526;14.974;2023-07-29T04:50:26;98543.52;;;18.03;74.99
77235;BME280;66253;50.526;14.974;2023-07-29T04:52:54;98541.34;;;18.20;75.00
77235;BME280;66253;50.526;14.974;2023-07-29T04:55:22;98541.77;;;18.33;74.88
77235;BME280;66253;50.526;14.974;2023-07-29T04:57:51;98545.84;;;18.41;74.75
77235;BME280;66253;50.526;14.974;2023-07-29T05:00:19;98550.80;;;18.47;74.54
77235;BME280;66253;50.526;14.974;2023-07-29T05:02:47;98554.86;;;18.53;74.41
77235;BME280;66253;50.526;14.974;2023-07-29T05:05:16;98558.52;;;18.56;74.21
77235;BME280;66253;50.526;14.974;2023-07-29T05:07:44;98555.94;;;18.58;74.11
77235;BME280;66253;50.526;14.974;2023-07-29T05:10:12;98557.06;;;18.57;74.05
77235;BME280;66253;50.526;14.974;2023-07-29T05:12:41;98552.14;;;18.54;73.88
77235;BME280;66253;50.526;14.974;2023-07-29T05:15:11;98554.89;;;18.54;74.04
77235;BME280;66253;50.526;14.974;2023-07-29T05:17:39;98551.39;;;18.56;74.02
77235;BME280;66253;50.526;14.974;2023-07-29T05:20:09;98550.75;;;18.65;74.03
77235;BME280;66253;50.526;14.974;2023-07-29T05:22:37;98553.55;;;18.79;74.02
77235;BME280;66253;50.526;14.974;2023-07-29T05:25:07;98555.40;;;18.91;73.87
77235;BME280;66253;50.526;14.974;2023-07-29T05:27:35;98552.23;;;19.00;73.87
77235;BME280;66253;50.526;14.974;2023-07-29T05:30:04;98548.89;;;19.09;73.55
77235;BME280;66253;50.526;14.974;2023-07-29T05:32:33;98545.04;;;19.18;73.60
77235;BME280;66253;50.526;14.974;2023-07-29T05:35:01;98541.82;;;19.24;73.55
77235;BME280;66253;50.526;14.974;2023-07-29T05:37:30;98542.42;;;19.34;73.65
77235;BME280;66253;50.526;14.974;2023-07-29T05:39:58;98545.86;;;19.47;73.53
77235;BME280;66253;50.526;14.974;2023-07-29T05:42:27;98547.70;;;19.61;72.90
77235;BME280;66253;50.526;14.974;2023-07-29T05:44:55;98555.05;;;19.77;73.09
77235;BME280;66253;50.526;14.974;2023-07-29T05:47:23;98560.39;;;19.91;72.63
77235;BME280;66253;50.526;14.974;2023-07-29T05:49:51;98560.46;;;19.99;72.27
77235;BME280;66253;50.526;14.974;2023-07-29T05:52:20;98556.65;;;20.00;71.99
77235;BME280;66253;50.526;14.974;2023-07-29T05:54:48;98552.38;;;20.01;71.84
77235;BME280;66253;50.526;14.974;2023-07-29T05:57:16;98552.95;;;20.07;71.95
77235;BME280;66253;50.526;14.974;2023-07-29T05:59:45;98555.10;;;20.16;71.73
77235;BME280;66253;50.526;14.974;2023-07-29T06:02:13;98551.17;;;20.27;71.69
77235;BME280;66253;50.526;14.974;2023-07-29T06:04:41;98552.58;;;20.40;71.74
77235;BME280;66253;50.526;14.974;2023-07-29T06:07:09;98551.74;;;20.53;71.23
77235;BME280;66253;50.526;14.974;2023-07-29T06:09:38;98551.27;;;20.62;70.96
77235;BME280;66253;50.526;14.974;2023-07-29T06:12:07;98548.27;;;20.67;70.94
77235;BME280;66253;50.526;14.974;2023-07-29T06:14:36;98543.86;;;20.71;70.91
77235;BME280;66253;50.526;14.974;2023-07-29T06:17:04;98541.73;;;20.76;70.78
77235;BME280;66253;50.526;14.974;2023-07-29T06:19:33;98544.99;;;20.83;70.13
77235;BME280;66253;50.526;14.974;2023-07-29T06:22:01;98541.17;;;20.91;69.85
77235;BME280;66253;50.526;14.974;2023-07-29T06:24:29;98542.59;;;21.00;69.56
77235;BME280;66253;50.526;14.974;2023-07-29T06:26:57;98543.36;;;21.07;69.52
77235;BME280;66253;50.526;14.974;2023-07-29T06:29:26;98545.14;;;21.15;69.25
77235;BME280;66253;50.526;14.974;2023-07-29T06:31:54;98540.56;;;21.20;68.78
77235;BME280;66253;50.526;14.974;2023-07-29T06:34:23;98539.13;;;21.23;68.70
77235;BME280;66253;50.526;14.974;2023-07-29T06:36:51;98544.86;;;21.30;68.66
77235;BME280;66253;50.526;14.974;2023-07-29T06:39:19;98541.55;;;21.35;68.45
77235;BME280;66253;50.526;14.974;2023-07-29T06:41:48;98537.98;;;21.41;68.35
77235;BME280;66253;50.526;14.974;2023-07-29T06:44:16;98535.59;;;21.49;68.24
77235;BME280;66253;50.526;14.974;2023-07-29T06:46:44;98534.34;;;21.54;67.71
77235;BME280;66253;50.526;14.974;2023-07-29T06:49:13;98529.60;;;21.56;67.76
77235;BME280;66253;50.526;14.974;2023-07-29T06:51:41;98525.11;;;21.56;67.52
77235;BME280;66253;50.526;14.974;2023-07-29T06:54:09;98523.70;;;21.58;67.48
77235;BME280;66253;50.526;14.974;2023-07-29T06:56:37;98524.95;;;21.56;67.36
77235;BME280;66253;50.526;14.974;2023-07-29T06:59:06;98522.60;;;21.56;67.54
77235;BME280;66253;50.526;14.974;2023-07-29T07:01:35;98517.99;;;21.59;67.53
77235;BME280;66253;50.526;14.974;2023-07-29T07:04:03;98513.98;;;21.64;67.56
77235;BME280;66253;50.526;14.974;2023-07-29T07:06:31;98516.38;;;21.67;67.42
77235;BME280;66253;50.526;14.974;2023-07-29T07:09:00;98514.20;;;21.71;67.28
77235;BME280;66253;50.526;14.974;2023-07-29T07:11:28;98516.05;;;21.76;67.20
77235;BME280;66253;50.526;14.974;2023-07-29T07:13:56;98507.04;;;21.82;67.14
77235;BME280;66253;50.526;14.974;2023-07-29T07:16:24;98504.95;;;21.84;66.87
77235;BME280;66253;50.526;14.974;2023-07-29T07:18:53;98507.02;;;21.91;66.75
77235;BME280;66253;50.526;14.974;2023-07-29T07:21:21;98506.15;;;22.04;66.39
77235;BME280;66253;50.526;14.974;2023-07-29T07:23:50;98505.65;;;22.17;66.27
77235;BME280;66253;50.526;14.974;2023-07-29T07:26:18;98504.62;;;22.34;66.16
77235;BME280;66253;50.526;14.974;2023-07-29T07:28:46;98504.48;;;22.51;66.15
77235;BME280;66253;50.526;14.974;2023-07-29T07:31:15;98502.95;;;22.71;65.98
77235;BME280;66253;50.526;14.974;2023-07-29T07:33:44;98498.50;;;22.90;65.20
77235;BME280;66253;50.526;14.974;2023-07-29T07:36:12;98499.39;;;23.06;63.91
77235;BME280;66253;50.526;14.974;2023-07-29T07:38:40;98501.73;;;23.17;63.88
77235;BME280;66253;50.526;14.974;2023-07-29T07:41:09;98500.02;;;23.30;63.24
77235;BME280;66253;50.526;14.974;2023-07-29T07:43:37;98499.45;;;23.45;63.97
77235;BME280;66253;50.526;14.974;2023-07-29T07:46:06;98501.89;;;23.59;63.33
77235;BME280;66253;50.526;14.974;2023-07-29T07:48:34;98501.27;;;23.73;62.40
77235;BME280;66253;50.526;14.974;2023-07-29T07:51:11;98498.70;;;23.83;62.11
77235;BME280;66253;50.526;14.974;2023-07-29T07:53:39;98494.02;;;23.91;61.75
77235;BME280;66253;50.526;14.974;2023-07-29T07:56:07;98493.08;;;23.93;61.33
77235;BME280;66253;50.526;14.974;2023-07-29T07:58:36;98489.82;;;23.94;61.04
77235;BME280;66253;50.526;14.974;2023-07-29T08:01:05;98488.67;;;23.95;60.44
77235;BME280;66253;50.526;14.974;2023-07-29T08:03:34;98482.11;;;23.94;60.26
77235;BME280;66253;50.526;14.974;2023-07-29T08:06:03;98481.83;;;23.95;60.32
77235;BME280;66253;50.526;14.974;2023-07-29T08:08:32;98484.14;;;23.99;60.39
77235;BME280;66253;50.526;14.974;2023-07-29T08:11:00;98481.70;;;24.06;59.72
77235;BME280;66253;50.526;14.974;2023-07-29T08:13:28;98475.02;;;24.12;59.76
77235;BME280;66253;50.526;14.974;2023-07-29T08:15:56;98474.25;;;24.17;59.26
77235;BME280;66253;50.526;14.974;2023-07-29T08:18:25;98468.77;;;24.22;59.26
77235;BME280;66253;50.526;14.974;2023-07-29T08:20:57;98464.78;;;24.28;58.83
77235;BME280;66253;50.526;14.974;2023-07-29T08:23:26;98465.06;;;24.33;58.63
77235;BME280;66253;50.526;14.974;2023-07-29T08:25:56;98462.45;;;24.36;58.13
77235;BME280;66253;50.526;14.974;2023-07-29T08:28:25;98467.09;;;24.41;58.16
77235;BME280;66253;50.526;14.974;2023-07-29T08:30:53;98464.92;;;24.44;58.05
77235;BME280;66253;50.526;14.974;2023-07-29T08:33:21;98462.70;;;24.46;57.74
77235;BME280;66253;50.526;14.974;2023-07-29T08:35:49;98454.69;;;24.48;57.82
77235;BME280;66253;50.526;14.974;2023-07-29T08:38:18;98448.71;;;24.51;57.82
77235;BME280;66253;50.526;14.974;2023-07-29T08:40:52;98446.09;;;24.52;57.51
77235;BME280;66253;50.526;14.974;2023-07-29T08:43:27;98450.77;;;24.52;57.23
77235;BME280;66253;50.526;14.974;2023-07-29T08:45:58;98445.79;;;24.56;57.84
77235;BME280;66253;50.526;14.974;2023-07-29T08:48:31;98449.45;;;24.63;57.75
77235;BME280;66253;50.526;14.974;2023-07-29T08:51:01;98452.59;;;24.73;57.80
77235;BME280;66253;50.526;14.974;2023-07-29T08:53:31;98454.88;;;24.79;56.77
77235;BME280;66253;50.526;14.974;2023-07-29T08:55:58;98456.59;;;24.88;56.95
77235;BME280;66253;50.526;14.974;2023-07-29T08:58:26;98456.06;;;24.97;56.54
77235;BME280;66253;50.526;14.974;2023-07-29T09:00:55;98453.27;;;25.04;56.76
77235;BME280;66253;50.526;14.974;2023-07-29T09:03:23;98453.04;;;25.08;56.27
77235;BME280;66253;50.526;14.974;2023-07-29T09:05:52;98453.95;;;25.11;55.70
77235;BME280;66253;50.526;14.974;2023-07-29T09:08:21;98456.91;;;25.12;55.58
77235;BME280;66253;50.526;14.974;2023-07-29T09:10:50;98454.08;;;25.08;55.58
77235;BME280;66253;50.526;14.974;2023-07-29T09:13:18;98452.40;;;25.08;55.39
77235;BME280;66253;50.526;14.974;2023-07-29T09:15:47;98452.71;;;25.07;55.69
77235;BME280;66253;50.526;14.974;2023-07-29T09:18:19;98454.92;;;25.06;55.70
77235;BME280;66253;50.526;14.974;2023-07-29T09:20:49;98454.08;;;25.04;55.12
77235;BME280;66253;50.526;14.974;2023-07-29T09:23:17;98451.28;;;25.02;55.06
77235;BME280;66253;50.526;14.974;2023-07-29T09:25:47;98452.25;;;24.98;54.58
77235;BME280;66253;50.526;14.974;2023-07-29T09:28:16;98450.63;;;24.97;54.74
77235;BME280;66253;50.526;14.974;2023-07-29T09:30:46;98451.36;;;25.01;54.65
77235;BME280;66253;50.526;14.974;2023-07-29T09:33:14;98447.29;;;25.02;54.08
77235;BME280;66253;50.526;14.974;2023-07-29T09:35:43;98448.55;;;25.05;54.46
77235;BME280;66253;50.526;14.974;2023-07-29T09:38:15;98449.05;;;25.10;53.84
77235;BME280;66253;50.526;14.974;2023-07-29T09:40:43;98442.48;;;25.14;53.60
77235;BME280;66253;50.526;14.974;2023-07-29T09:43:12;98442.48;;;25.16;53.46
77235;BME280;66253;50.526;14.974;2023-07-29T09:45:40;98444.83;;;25.21;53.19
77235;BME280;66253;50.526;14.974;2023-07-29T09:48:09;98448.15;;;25.26;53.37
77235;BME280;66253;50.526;14.974;2023-07-29T09:50:38;98446.30;;;25.31;53.39
77235;BME280;66253;50.526;14.974;2023-07-29T09:53:08;98448.36;;;25.34;53.10
77235;BME280;66253;50.526;14.974;2023-07-29T09:55:36;98449.77;;;25.37;52.88
77235;BME280;66253;50.526;14.974;2023-07-29T09:58:05;98448.83;;;25.37;52.59
77235;BME280;66253;50.526;14.974;2023-07-29T10:00:33;98449.23;;;25.38;52.72
77235;BME280;66253;50.526;14.974;2023-07-29T10:03:02;98454.19;;;25.40;52.39
77235;BME280;66253;50.526;14.974;2023-07-29T10:05:31;98456.85;;;25.42;52.38
77235;BME280;66253;50.526;14.974;2023-07-29T10:07:59;98453.86;;;25.43;52.80
77235;BME280;66253;50.526;14.974;2023-07-29T10:10:28;98458.52;;;25.44;52.18
77235;BME280;66253;50.526;14.974;2023-07-29T10:12:57;98455.64;;;25.40;52.40
77235;BME280;66253;50.526;14.974;2023-07-29T10:15:26;98462.00;;;25.37;52.08
77235;BME280;66253;50.526;14.974;2023-07-29T10:17:55;98463.41;;;25.33;52.11
77235;BME280;66253;50.526;14.974;2023-07-29T10:20:24;98462.92;;;25.31;52.28
77235;BME280;66253;50.526;14.974;2023-07-29T10:22:53;98462.19;;;25.29;52.35
77235;BME280;66253;50.526;14.974;2023-07-29T10:25:24;98459.05;;;25.28;52.79
77235;BME280;66253;50.526;14.974;2023-07-29T10:27:55;98458.86;;;25.30;52.66
77235;BME280;66253;50.526;14.974;2023-07-29T10:30:25;98457.67;;;25.30;52.40
77235;BME280;66253;50.526;14.974;2023-07-29T10:32:58;98452.16;;;25.36;52.42
77235;BME280;66253;50.526;14.974;2023-07-29T10:35:26;98444.59;;;25.43;52.25
77235;BME280;66253;50.526;14.974;2023-07-29T10:37:56;98444.59;;;25.48;52.13
77235;BME280;66253;50.526;14.974;2023-07-29T10:40:24;98439.19;;;25.55;52.12
77235;BME280;66253;50.526;14.974;2023-07-29T10:43:06;98438.55;;;25.63;51.85
77235;BME280;66253;50.526;14.974;2023-07-29T10:45:40;98435.40;;;25.68;51.22
77235;BME280;66253;50.526;14.974;2023-07-29T10:48:11;98426.48;;;25.76;51.66
77235;BME280;66253;50.526;14.974;2023-07-29T10:50:40;98426.14;;;25.85;51.45
77235;BME280;66253;50.526;14.974;2023-07-29T10:53:08;98419.46;;;25.94;51.60
77235;BME280;66253;50.526;14.974;2023-07-29T10:55:37;98421.55;;;26.05;51.17
77235;BME280;66253;50.526;14.974;2023-07-29T10:58:13;98418.80;;;26.12;50.94
77235;BME280;66253;50.526;14.974;2023-07-29T11:00:43;98418.55;;;26.17;50.54
77235;BME280;66253;50.526;14.974;2023-07-29T11:03:12;98414.00;;;26.21;50.43
77235;BME280;66253;50.526;14.974;2023-07-29T11:05:49;98405.52;;;26.23;49.97
77235;BME280;66253;50.526;14.974;2023-07-29T11:08:23;98400.38;;;26.24;49.82
77235;BME280;66253;50.526;14.974;2023-07-29T11:11:03;98395.53;;;26.27;50.10
77235;BME280;66253;50.526;14.974;2023-07-29T11:13:33;98392.66;;;26.27;49.93
77235;BME280;66253;50.526;14.974;2023-07-29T11:16:02;98392.41;;;26.29;49.98
77235;BME280;66253;50.526;14.974;2023-07-29T11:18:30;98385.28;;;26.33;50.09
77235;BME280;66253;50.526;14.974;2023-07-29T11:20:59;98379.33;;;26.38;49.66
77235;BME280;66253;50.526;14.974;2023-07-29T11:23:32;98377.33;;;26.44;49.99
77235;BME280;66253;50.526;14.974;2023-07-29T11:26:01;98376.31;;;26.54;49.46
77235;BME280;66253;50.526;14.974;2023-07-29T11:28:30;98369.08;;;26.61;48.88
77235;BME280;66253;50.526;14.974;2023-07-29T11:30:59;98362.36;;;26.71;49.38
77235;BME280;66253;50.526;14.974;2023-07-29T11:33:28;98357.44;;;26.83;48.74
77235;BME280;66253;50.526;14.974;2023-07-29T11:35:56;98357.61;;;26.94;48.63
77235;BME280;66253;50.526;14.974;2023-07-29T11:38:25;98351.94;;;27.03;48.28
77235;BME280;66253;50.526;14.974;2023-07-29T11:40:57;98348.51;;;27.07;47.28
77235;BME280;66253;50.526;14.974;2023-07-29T11:43:26;98343.08;;;27.08;47.49
77235;BME280;66253;50.526;14.974;2023-07-29T11:45:55;98348.89;;;27.09;47.29
77235;BME280;66253;50.526;14.974;2023-07-29T11:48:33;98348.08;;;27.10;46.75
77235;BME280;66253;50.526;14.974;2023-07-29T11:51:01;98339.05;;;27.12;46.91
77235;BME280;66253;50.526;14.974;2023-07-29T11:53:31;98337.86;;;27.13;47.09
77235;BME280;66253;50.526;14.974;2023-07-29T11:55:59;98344.48;;;27.15;47.59
77235;BME280;66253;50.526;14.974;2023-07-29T11:58:28;98345.44;;;27.17;47.49
77235;BME280;66253;50.526;14.974;2023-07-29T12:00:57;98339.91;;;27.14;47.29
77235;BME280;66253;50.526;14.974;2023-07-29T12:03:26;98340.40;;;27.10;47.31
77235;BME280;66253;50.526;14.974;2023-07-29T12:05:54;98346.39;;;27.04;47.30
77235;BME280;66253;50.526;14.974;2023-07-29T12:08:23;98346.39;;;26.97;47.57
77235;BME280;66253;50.526;14.974;2023-07-29T12:10:51;98348.90;;;26.91;47.50
77235;BME280;66253;50.526;14.974;2023-07-29T12:13:23;98347.21;;;26.83;47.50
77235;BME280;66253;50.526;14.974;2023-07-29T12:15:51;98350.31;;;26.79;47.95
77235;BME280;66253;50.526;14.974;2023-07-29T12:18:20;98355.16;;;26.69;47.63
77235;BME280;66253;50.526;14.974;2023-07-29T12:20:57;98357.10;;;26.56;47.62
77235;BME280;66253;50.526;14.974;2023-07-29T12:23:30;98365.36;;;26.47;47.56
77235;BME280;66253;50.526;14.974;2023-07-29T12:25:59;98377.52;;;26.25;48.52
77235;BME280;66253;50.526;14.974;2023-07-29T12:28:28;98388.37;;;25.94;50.12
77235;BME280;66253;50.526;14.974;2023-07-29T12:30:56;98394.84;;;25.56;51.07
77235;BME280;66253;50.526;14.974;2023-07-29T12:33:35;98400.30;;;25.25;52.00
77235;BME280;66253;50.526;14.974;2023-07-29T12:36:04;98408.77;;;24.94;52.79
77235;BME280;66253;50.526;14.974;2023-07-29T12:38:33;98409.36;;;24.65;53.29
77235;BME280;66253;50.526;14.974;2023-07-29T12:41:01;98406.61;;;24.39;54.48
77235;BME280;66253;50.526;14.974;2023-07-29T12:43:30;98408.94;;;24.17;55.25
77235;BME280;66253;50.526;14.974;2023-07-29T12:45:58;98404.38;;;24.01;55.90
77235;BME280;66253;50.526;14.974;2023-07-29T12:48:27;98401.22;;;23.87;56.89
77235;BME280;66253;50.526;14.974;2023-07-29T12:50:55;98396.48;;;23.75;57.53
77235;BME280;66253;50.526;14.974;2023-07-29T12:53:23;98401.04;;;23.64;58.12
77235;BME280;66253;50.526;14.974;2023-07-29T12:55:51;98404.45;;;23.55;58.84
77235;BME280;66253;50.526;14.974;2023-07-29T12:58:20;98402.25;;;23.46;59.12
77235;BME280;66253;50.526;14.974;2023-07-29T13:00:48;98399.25;;;23.39;59.51
77235;BME280;66253;50.526;14.974;2023-07-29T13:03:16;98402.11;;;23.31;59.90